Time;durP1;ratioP1;P1;durP2;ratioP2;P2;SDS_P1;SDS_P2;PMS_P1;PMS_P2;Temp;Humidity;BMP_temperature;BMP_pressure;BME280_temperature;BME280_humidity;BME280_pressure;Samples;Min_cycle;Max_cycle;Signal;HPM_P1;HPM_P2
2022/07/17 00:01:39;;;;;;;2.57;1.50;;;;;;;10.26;100.00;98648.31;5036997;28;20053;-63
2022/07/17 00:04:06;;;;;;;9.10;1.93;;;;;;;10.23;100.00;98651.09;5037089;28;20045;-64
2022/07/17 00:06:35;;;;;;;2.90;1.90;;;;;;;10.19;100.00;98654.81;5037150;28;20365;-64
2022/07/17 00:09:03;;;;;;;9.50;2.40;;;;;;;10.22;100.00;98657.25;5037143;28;20056;-64
2022/07/17 00:11:30;;;;;;;4.17;2.27;;;;;;;10.18;100.00;98660.16;5037103;28;20056;-63
2022/07/17 00:13:58;;;;;;;6.73;1.60;;;;;;;10.13;100.00;98662.16;5036888;28;20079;-64
2022/07/17 00:16:26;;;;;;;2.17;1.43;;;;;;;10.16;100.00;98667.25;5036830;28;20044;-64
2022/07/17 00:18:53;;;;;;;3.23;1.50;;;;;;;10.16;100.00;98668.13;5037201;28;20341;-64
2022/07/17 00:21:20;;;;;;;3.10;1.37;;;;;;;10.14;100.00;98672.59;5037028;28;20437;-64
2022/07/17 00:23:50;;;;;;;4.00;1.70;;;;;;;10.16;100.00;98673.38;5036709;28;20491;-64
2022/07/17 00:26:17;;;;;;;6.10;1.43;;;;;;;10.18;100.00;98678.56;5037124;28;20041;-63
2022/07/17 00:28:46;;;;;;;4.43;1.80;;;;;;;10.30;100.00;98672.66;5037243;28;20348;-63
2022/07/17 00:31:13;;;;;;;6.53;2.40;;;;;;;10.35;100.00;98674.09;5036510;28;20049;-64
2022/07/17 00:33:41;;;;;;;4.23;1.60;;;;;;;10.41;100.00;98675.56;5036976;28;20056;-63
2022/07/17 00:36:09;;;;;;;3.57;1.27;;;;;;;10.46;100.00;98678.78;5036554;28;20037;-63
2022/07/17 00:38:36;;;;;;;4.73;1.80;;;;;;;10.51;100.00;98676.78;5036886;28;20046;-64
2022/07/17 00:41:05;;;;;;;9.57;1.40;;;;;;;10.53;100.00;98678.41;5036502;28;20042;-64
2022/07/17 00:43:33;;;;;;;5.37;1.40;;;;;;;10.52;100.00;98683.75;5036753;28;20041;-64
2022/07/17 00:46:03;;;;;;;2.87;1.57;;;;;;;10.50;100.00;98675.06;5036660;28;20060;-63
2022/07/17 00:48:32;;;;;;;5.90;2.20;;;;;;;10.48;100.00;98682.19;5036648;28;20046;-64
2022/07/17 00:51:00;;;;;;;3.10;1.50;;;;;;;10.43;100.00;98681.63;5037050;28;20456;-63
2022/07/17 00:53:29;;;;;;;8.23;1.83;;;;;;;10.38;100.00;98678.34;5036608;28;20441;-63
2022/07/17 00:55:59;;;;;;;5.73;1.50;;;;;;;10.31;100.00;98677.84;5036691;28;20057;-63
2022/07/17 00:58:29;;;;;;;5.87;1.60;;;;;;;10.30;100.00;98688.44;5038831;28;20045;-63
2022/07/17 01:00:58;;;;;;;7.07;1.57;;;;;;;10.27;100.00;98684.19;5040589;28;20045;-64
2022/07/17 01:03:26;;;;;;;6.27;1.33;;;;;;;10.26;100.00;98679.88;5040374;28;20077;-63
2022/07/17 01:05:54;;;;;;;4.07;1.40;;;;;;;10.32;100.00;98681.31;5040386;28;20045;-64
2022/07/17 01:08:22;;;;;;;3.40;1.60;;;;;;;10.38;100.00;98680.97;5040661;28;20045;-64
2022/07/17 01:10:49;;;;;;;2.37;1.30;;;;;;;10.34;100.00;98679.44;5040249;28;20434;-63
2022/07/17 01:13:18;;;;;;;4.40;1.93;;;;;;;10.31;100.00;98684.88;5040378;28;20048;-64
2022/07/17 01:15:47;;;;;;;2.90;2.00;;;;;;;10.35;100.00;98673.25;5040325;28;20119;-64
2022/07/17 01:18:16;;;;;;;4.63;1.93;;;;;;;10.41;100.00;98678.19;5040132;28;20034;-63
2022/07/17 01:20:46;;;;;;;8.90;1.90;;;;;;;10.42;100.00;98677.25;5040150;28;20049;-64
2022/07/17 01:23:17;;;;;;;5.97;1.63;;;;;;;10.45;100.00;98690.25;5040378;28;20045;-64
2022/07/17 01:25:44;;;;;;;2.07;1.50;;;;;;;10.47;100.00;98680.50;5039887;28;20124;-64
2022/07/17 01:28:12;;;;;;;3.10;2.00;;;;;;;10.49;100.00;98686.53;5040288;28;20046;-64
2022/07/17 01:30:47;;;;;;;3.57;1.60;;;;;;;10.47;100.00;98680.50;5039857;28;20080;-64
2022/07/17 01:33:15;;;;;;;3.43;1.77;;;;;;;10.48;100.00;98669.91;5039869;28;20092;-64
2022/07/17 01:35:43;;;;;;;4.13;1.57;;;;;;;10.50;100.00;98675.06;5040157;28;20049;-64
2022/07/17 01:38:10;;;;;;;5.80;1.50;;;;;;;10.52;100.00;98678.47;5039852;28;20345;-64
2022/07/17 01:40:39;;;;;;;3.93;1.70;;;;;;;10.51;100.00;98666.25;5039689;28;20041;-64
2022/07/17 01:43:07;;;;;;;4.23;1.67;;;;;;;10.57;100.00;98676.44;5039910;28;20041;-64
2022/07/17 01:45:34;;;;;;;5.80;2.13;;;;;;;10.55;99.54;98673.06;5039552;28;20054;-64
2022/07/17 01:48:02;;;;;;;6.87;1.57;;;;;;;10.55;99.28;98675.69;5039705;28;20330;-63
2022/07/17 01:50:29;;;;;;;3.70;1.57;;;;;;;10.54;99.22;98664.28;5039586;28;20091;-64
2022/07/17 01:52:56;;;;;;;4.73;1.60;;;;;;;10.57;99.47;98671.16;5039694;28;20045;-64
2022/07/17 01:55:24;;;;;;;5.97;2.63;;;;;;;10.57;99.46;98665.91;5039655;28;20041;-64
2022/07/17 01:57:53;;;;;;;5.40;2.20;;;;;;;10.55;99.69;98670.41;5039672;28;20049;-64
2022/07/17 02:00:23;;;;;;;5.73;1.70;;;;;;;10.54;99.74;98672.19;5039316;28;20437;-64
2022/07/17 02:02:51;;;;;;;5.07;1.73;;;;;;;10.57;99.31;98676.44;5039584;28;20049;-63
2022/07/17 02:05:19;;;;;;;5.20;1.70;;;;;;;10.51;100.00;98676.78;5039565;28;20049;-64
2022/07/17 02:07:46;;;;;;;12.27;2.00;;;;;;;10.46;100.00;98673.53;5039420;28;20053;-64
2022/07/17 02:10:15;;;;;;;4.27;1.30;;;;;;;10.49;100.00;98673.38;5038456;28;20053;-63
2022/07/17 02:12:43;;;;;;;6.20;1.37;;;;;;;10.46;100.00;98676.16;5039111;28;20072;-64
2022/07/17 02:15:13;;;;;;;4.23;1.20;;;;;;;10.45;100.00;98677.09;5039198;28;20052;-64
2022/07/17 02:17:41;;;;;;;3.07;1.57;;;;;;;10.41;100.00;98676.44;5039410;28;20068;-63
2022/07/17 02:20:12;;;;;;;4.17;1.43;;;;;;;10.42;100.00;98678.13;5039141;28;20049;-63
2022/07/17 02:22:40;;;;;;;3.03;1.03;;;;;;;10.42;100.00;98677.25;5038994;28;20049;-63
2022/07/17 02:25:10;;;;;;;9.30;1.67;;;;;;;10.44;100.00;98685.94;5038815;28;20057;-64
2022/07/17 02:27:38;;;;;;;6.40;1.70;;;;;;;10.41;100.00;98675.56;5039005;28;20037;-64
2022/07/17 02:30:08;;;;;;;8.03;1.53;;;;;;;10.46;100.00;98678.78;5038969;28;20077;-63
2022/07/17 02:32:38;;;;;;;7.73;1.57;;;;;;;10.49;100.00;98670.75;5038938;28;20049;-64
2022/07/17 02:35:06;;;;;;;5.70;1.83;;;;;;;10.51;100.00;98679.41;5038897;28;20041;-64
2022/07/17 02:37:34;;;;;;;7.23;1.77;;;;;;;10.51;100.00;98676.78;5038938;28;20046;-63
2022/07/17 02:40:01;;;;;;;9.53;2.93;;;;;;;10.49;100.00;98676.88;5038546;28;20092;-63
2022/07/17 02:42:30;;;;;;;6.37;2.20;;;;;;;10.46;100.00;98682.28;5038558;28;20127;-63
2022/07/17 02:44:59;;;;;;;5.87;1.70;;;;;;;10.51;100.00;98684.69;5038574;28;20076;-63
2022/07/17 02:47:29;;;;;;;7.27;2.70;;;;;;;10.56;100.00;98685.28;5038673;28;20042;-63
2022/07/17 02:50:01;;;;;;;6.50;1.67;;;;;;;10.61;100.00;98688.50;5039080;28;20133;-64
2022/07/17 02:52:29;;;;;;;9.50;2.17;;;;;;;10.69;100.00;98684.56;5038451;28;20046;-64
2022/07/17 02:54:56;;;;;;;5.23;1.57;;;;;;;10.78;99.41;98693.72;5038368;28;20045;-64
2022/07/17 02:57:23;;;;;;;7.00;1.60;;;;;;;10.78;99.25;98701.63;5038502;28;20073;-63
2022/07/17 02:59:51;;;;;;;4.00;1.50;;;;;;;10.83;98.56;98695.19;5038484;28;20336;-63
2022/07/17 03:02:18;;;;;;;8.97;2.43;;;;;;;10.86;98.72;98688.91;5038130;28;20437;-63
2022/07/17 03:04:46;;;;;;;12.53;1.43;;;;;;;10.96;98.41;98690.09;5038385;28;20041;-63
2022/07/17 03:07:15;;;;;;;5.07;1.67;;;;;;;11.19;96.50;98694.94;5038089;28;20049;-63
2022/07/17 03:09:42;;;;;;;6.43;1.77;;;;;;;11.50;95.01;98697.53;5038460;28;20433;-64
2022/07/17 03:12:10;;;;;;;4.47;1.47;;;;;;;11.81;93.96;98692.19;5037961;28;20429;-64
2022/07/17 03:14:37;;;;;;;5.03;1.67;;;;;;;12.07;92.22;98699.41;5038064;28;20128;-64
2022/07/17 03:17:04;;;;;;;5.95;1.55;;;;;;;12.23;91.87;98694.91;5038276;28;20042;-63
2022/07/17 03:19:32;;;;;;;5.00;2.13;;;;;;;12.08;91.12;98695.84;5037858;28;20076;-64
2022/07/17 03:21:59;;;;;;;2.60;1.45;;;;;;;11.82;92.30;98696.50;5038213;28;20053;-64
2022/07/17 03:24:28;;;;;;;5.95;1.50;;;;;;;11.59;93.65;98707.53;5037828;28;20349;-64
2022/07/17 03:26:56;;;;;;;5.82;1.67;;;;;;;11.51;94.92;98701.88;5037650;28;20061;-64
2022/07/17 03:29:23;;;;;;;4.20;1.42;;;;;;;11.35;95.12;98715.06;5037690;28;20046;-63
2022/07/17 03:31:51;;;;;;;3.53;1.52;;;;;;;11.20;96.01;98713.28;5037486;28;20058;-64
2022/07/17 03:34:19;;;;;;;7.53;1.70;;;;;;;11.12;96.41;98719.91;5037554;28;20132;-63
2022/07/17 03:36:46;;;;;;;2.20;1.30;;;;;;;11.02;97.25;98716.09;5037519;28;20132;-64
2022/07/17 03:39:14;;;;;;;3.17;1.60;;;;;;;11.12;96.84;98718.13;5037814;28;20045;-63
2022/07/17 03:41:43;;;;;;;5.03;2.10;;;;;;;11.24;95.78;98724.50;5037600;28;20495;-64
2022/07/17 03:44:10;;;;;;;5.27;2.00;;;;;;;11.30;96.03;98721.50;5037437;28;20042;-63
2022/07/17 03:46:38;;;;;;;4.50;1.33;;;;;;;11.38;96.25;98715.81;5037501;28;20094;-63
2022/07/17 03:49:05;;;;;;;6.47;1.30;;;;;;;11.61;94.77;98718.00;5037587;28;20038;-64
2022/07/17 03:51:33;;;;;;;5.75;2.03;;;;;;;11.84;94.08;98725.41;5037252;28;20124;-63
2022/07/17 03:54:00;;;;;;;10.50;2.67;;;;;;;11.91;93.42;98726.75;5037431;28;20072;-62
2022/07/17 03:56:28;;;;;;;3.80;1.73;;;;;;;11.97;93.18;98723.81;5037655;28;20333;-62
2022/07/17 03:58:57;;;;;;;5.10;1.70;;;;;;;12.07;92.45;98725.81;5037103;28;20124;-63
2022/07/17 04:01:24;;;;;;;17.52;1.95;;;;;;;12.29;91.53;98717.44;5037125;28;20057;-62
2022/07/17 04:03:52;;;;;;;5.00;1.52;;;;;;;12.44;90.39;98730.56;5037240;28;20041;-62
2022/07/17 04:06:19;;;;;;;4.53;2.17;;;;;;;12.66;89.06;98741.53;5037069;28;20046;-62
2022/07/17 04:08:47;;;;;;;7.35;2.53;;;;;;;13.23;86.39;98737.94;5037175;28;20054;-62
2022/07/17 04:11:14;;;;;;;3.50;1.73;;;;;;;13.67;84.22;98727.97;5036856;28;20053;-62
2022/07/17 04:13:42;;;;;;;7.25;1.90;;;;;;;13.52;84.42;98741.34;5036966;28;20474;-63
2022/07/17 04:16:11;;;;;;;7.82;2.78;;;;;;;13.31;84.76;98740.94;5036992;28;20045;-63
2022/07/17 04:18:38;;;;;;;9.57;1.40;;;;;;;13.16;85.05;98744.53;5037114;28;20080;-63
2022/07/17 04:21:07;;;;;;;6.57;1.55;;;;;;;13.13;85.62;98739.44;5036879;28;20047;-63
2022/07/17 04:23:36;;;;;;;8.73;1.83;;;;;;;13.37;85.41;98739.69;5036872;28;20384;-63
2022/07/17 04:26:04;;;;;;;9.93;3.60;;;;;;;13.26;85.19;98743.00;5036935;28;20037;-62
2022/07/17 04:28:31;;;;;;;6.70;1.75;;;;;;;13.09;84.94;98751.16;5037020;28;20388;-62
2022/07/17 04:30:59;;;;;;;5.72;1.92;;;;;;;13.00;86.00;98746.41;5036704;28;20050;-62
2022/07/17 04:33:27;;;;;;;5.15;1.92;;;;;;;12.89;86.23;98751.50;5036267;28;20067;-62
2022/07/17 04:35:55;;;;;;;8.35;1.58;;;;;;;12.90;86.76;98760.28;5036911;28;20042;-62
2022/07/17 04:38:22;;;;;;;6.13;1.70;;;;;;;12.91;87.38;98764.63;5036870;28;20050;-62
2022/07/17 04:40:50;;;;;;;5.10;2.22;;;;;;;12.91;88.00;98761.97;5036769;28;20046;-62
2022/07/17 04:43:17;;;;;;;4.55;1.30;;;;;;;12.95;87.80;98759.06;5036668;28;20045;-62
2022/07/17 04:45:45;;;;;;;5.70;1.73;;;;;;;13.49;85.49;98755.59;5036631;28;20073;-62
2022/07/17 04:48:12;;;;;;;3.72;1.15;;;;;;;13.99;83.72;98768.16;5036744;28;20413;-63
2022/07/17 04:50:41;;;;;;;5.65;1.50;;;;;;;14.28;83.37;98765.28;5036431;28;20045;-62
2022/07/17 04:53:09;;;;;;;3.60;1.60;;;;;;;14.49;81.55;98770.94;5036474;28;20049;-62
2022/07/17 04:55:37;;;;;;;2.60;1.08;;;;;;;14.52;81.72;98770.72;5036404;28;20136;-62
2022/07/17 04:58:04;;;;;;;9.95;1.42;;;;;;;14.50;81.68;98768.19;5036407;28;20068;-62
2022/07/17 05:00:32;;;;;;;4.55;1.30;;;;;;;14.36;81.44;98778.84;5036469;28;20049;-62
2022/07/17 05:03:00;;;;;;;4.18;1.30;;;;;;;14.27;82.47;98779.50;5036496;28;20045;-62
2022/07/17 05:05:27;;;;;;;4.35;1.48;;;;;;;14.19;82.75;98786.25;5036406;28;20041;-62
2022/07/17 05:07:56;;;;;;;7.38;1.73;;;;;;;14.06;82.51;98777.38;5036276;28;20045;-62
2022/07/17 05:10:24;;;;;;;8.13;2.05;;;;;;;13.99;84.10;98786.69;5036309;28;20056;-63
2022/07/17 05:12:51;;;;;;;7.35;3.10;;;;;;;13.99;84.24;98784.03;5035952;28;20042;-63
2022/07/17 05:15:18;;;;;;;3.30;1.13;;;;;;;13.91;84.06;98771.31;5043167;28;20045;-62
2022/07/17 05:17:46;;;;;;;3.10;1.40;;;;;;;13.87;84.78;98783.03;5055780;28;20056;-62
2022/07/17 05:20:13;;;;;;;5.97;1.63;;;;;;;13.80;84.45;98781.75;5056085;28;20055;-62
2022/07/17 05:22:41;;;;;;;9.80;1.95;;;;;;;13.85;85.52;98781.47;5055932;28;20132;-62
2022/07/17 05:25:10;;;;;;;7.57;1.30;;;;;;;13.85;84.56;98779.63;5055691;28;20056;-62
2022/07/17 05:27:37;;;;;;;4.07;1.50;;;;;;;13.83;84.51;98776.25;5055978;28;20322;-62
2022/07/17 05:30:06;;;;;;;5.25;1.40;;;;;;;13.75;85.10;98780.34;5056041;28;20051;-62
2022/07/17 05:32:33;;;;;;;5.57;1.27;;;;;;;13.72;86.46;98778.75;5056035;28;20060;-62
2022/07/17 05:35:01;;;;;;;4.20;1.75;;;;;;;13.84;87.81;98785.88;5056499;28;20049;-62
2022/07/17 05:37:28;;;;;;;5.03;1.73;;;;;;;13.84;85.85;98790.31;5056234;28;20432;-62
2022/07/17 05:39:56;;;;;;;7.40;1.60;;;;;;;13.80;85.94;98788.81;5056188;28;20049;-62
2022/07/17 05:42:25;;;;;;;6.65;1.40;;;;;;;13.71;86.42;98792.94;5056246;28;20048;-62
2022/07/17 05:44:52;;;;;;;5.70;1.38;;;;;;;13.76;86.72;98788.19;5057069;28;20041;-62
2022/07/17 05:47:19;;;;;;;5.03;1.40;;;;;;;13.80;86.11;98797.63;5059621;28;20420;-62
2022/07/17 05:49:47;;;;;;;5.47;1.20;;;;;;;13.77;86.01;98799.63;5059487;28;20447;-62
2022/07/17 05:52:15;;;;;;;6.85;1.58;;;;;;;13.77;86.14;98804.91;5059385;28;20041;-62
2022/07/17 05:54:42;;;;;;;3.22;1.20;;;;;;;13.83;87.40;98801.84;5059451;28;20421;-62
2022/07/17 05:57:10;;;;;;;3.22;1.02;;;;;;;14.03;88.19;98804.06;5059529;28;20049;-62
2022/07/17 05:59:39;;;;;;;8.52;1.52;;;;;;;14.10;86.77;98802.72;5059617;28;20041;-62
2022/07/17 06:02:06;;;;;;;5.75;1.77;;;;;;;14.05;85.90;98810.94;5059249;28;20083;-62
2022/07/17 06:04:34;;;;;;;14.00;3.03;;;;;;;14.13;87.06;98813.97;5059371;28;20045;-62
2022/07/17 06:07:02;;;;;;;7.53;1.67;;;;;;;14.22;87.03;98818.63;5059396;28;20048;-62
2022/07/17 06:09:29;;;;;;;7.60;1.67;;;;;;;14.24;85.94;98813.25;5058546;28;20041;-63
2022/07/17 06:11:57;;;;;;;1.63;1.20;;;;;;;14.29;85.55;98817.28;5057604;28;20075;-62
2022/07/17 06:14:24;;;;;;;2.78;1.38;;;;;;;14.31;86.23;98819.81;5058357;28;20433;-62
2022/07/17 06:16:53;;;;;;;6.45;1.25;;;;;;;14.44;86.10;98826.84;5059162;28;20045;-62
2022/07/17 06:19:20;;;;;;;5.03;1.60;;;;;;;14.46;85.80;98822.31;5058969;28;20040;-62
2022/07/17 06:21:48;;;;;;;4.25;1.00;;;;;;;14.57;87.52;98828.69;5056499;28;20048;-62
2022/07/17 06:24:15;;;;;;;5.10;1.38;;;;;;;14.74;85.82;98820.41;5058435;28;20135;-62
2022/07/17 06:26:43;;;;;;;2.17;0.98;;;;;;;14.79;83.57;98823.63;5058763;28;20049;-62
2022/07/17 06:29:10;;;;;;;4.55;1.05;;;;;;;14.81;84.34;98829.63;5058853;28;20037;-62
2022/07/17 06:31:38;;;;;;;3.67;1.17;;;;;;;14.86;84.47;98825.72;5058653;28;20060;-62
2022/07/17 06:34:07;;;;;;;2.78;1.30;;;;;;;14.90;83.32;98826.38;5058997;28;20041;-62
2022/07/17 06:36:34;;;;;;;6.05;1.85;;;;;;;14.88;83.62;98823.84;5058698;28;20052;-61
2022/07/17 06:39:02;;;;;;;3.47;1.60;;;;;;;14.99;83.81;98833.69;5058796;28;20401;-62
2022/07/17 06:41:29;;;;;;;4.72;1.50;;;;;;;15.03;83.14;98832.50;5058850;28;20425;-62
2022/07/17 06:43:56;;;;;;;6.93;1.60;;;;;;;15.08;84.29;98827.75;5058528;28;20051;-62
2022/07/17 06:46:24;;;;;;;5.10;1.27;;;;;;;15.20;84.26;98829.56;5058522;28;20096;-62
2022/07/17 06:48:52;;;;;;;6.03;1.20;;;;;;;15.30;82.91;98831.47;5058582;28;20144;-61
2022/07/17 06:51:20;;;;;;;4.45;1.20;;;;;;;15.30;82.74;98841.19;5057989;28;20041;-61
2022/07/17 06:53:48;;;;;;;5.80;1.33;;;;;;;15.34;83.34;98840.88;5057380;28;20053;-62
2022/07/17 06:56:15;;;;;;;6.53;2.30;;;;;;;15.53;84.39;98840.44;5056913;28;20099;-62
2022/07/17 06:58:43;;;;;;;4.68;1.83;;;;;;;15.72;83.28;98840.81;5054366;28;20057;-62
2022/07/17 07:01:10;;;;;;;5.68;1.35;;;;;;;15.77;81.00;98836.88;5057851;28;20079;-62
2022/07/17 07:03:38;;;;;;;4.45;1.30;;;;;;;15.86;82.33;98846.81;5058176;28;20053;-62
2022/07/17 07:06:05;;;;;;;6.25;1.60;;;;;;;16.06;81.46;98838.28;5058046;28;20494;-63
2022/07/17 07:08:35;;;;;;;4.68;1.13;;;;;;;16.09;79.69;98843.38;5057512;28;20425;-63
2022/07/17 07:11:03;;;;;;;4.38;1.52;;;;;;;16.16;80.20;98836.63;5057982;28;20049;-62
2022/07/17 07:13:31;;;;;;;7.93;1.35;;;;;;;16.20;77.91;98831.94;5057703;28;20186;-62
2022/07/17 07:15:59;;;;;;;6.25;1.92;;;;;;;16.32;78.93;98842.50;5057152;28;20049;-62
2022/07/17 07:18:27;;;;;;;5.88;1.73;;;;;;;16.41;77.38;98838.31;5057616;28;20051;-62
2022/07/17 07:20:54;;;;;;;2.08;1.17;;;;;;;16.45;77.82;98839.78;5057750;28;20055;-62
2022/07/17 07:23:22;;;;;;;7.53;1.60;;;;;;;16.47;77.31;98841.34;5057828;28;20127;-63
2022/07/17 07:25:51;;;;;;;3.88;1.13;;;;;;;16.56;78.45;98847.78;5057698;28;20059;-63
2022/07/17 07:28:18;;;;;;;4.88;1.73;;;;;;;16.66;79.69;98840.78;5057807;28;20067;-62
2022/07/17 07:30:46;;;;;;;2.65;1.00;;;;;;;16.76;77.04;98841.81;5057494;28;20049;-62
2022/07/17 07:33:13;;;;;;;2.78;1.10;;;;;;;16.71;77.75;98844.81;5049492;28;20049;-63
2022/07/17 07:35:41;;;;;;;8.95;2.08;;;;;;;16.84;78.04;98844.72;5055731;28;20395;-62
2022/07/17 07:38:08;;;;;;;6.60;1.55;;;;;;;17.08;79.09;98845.53;5057406;28;20056;-62
2022/07/17 07:40:36;;;;;;;4.53;1.60;;;;;;;17.10;76.20;98840.91;5055728;28;20053;-62
2022/07/17 07:43:05;;;;;;;5.30;1.50;;;;;;;17.15;74.71;98849.41;5057660;28;20040;-62
2022/07/17 07:45:32;;;;;;;4.22;1.00;;;;;;;17.08;74.03;98846.34;5056513;28;20056;-62
2022/07/17 07:48:00;;;;;;;5.78;1.70;;;;;;;17.08;74.16;98856.16;5056553;28;20123;-62
2022/07/17 07:50:28;;;;;;;2.88;0.93;;;;;;;17.02;72.36;98853.97;5055615;28;20126;-63
2022/07/17 07:52:56;;;;;;;4.32;0.70;;;;;;;17.00;70.60;98856.75;5056017;28;20066;-63
2022/07/17 07:55:23;;;;;;;2.53;0.93;;;;;;;17.16;72.93;98867.91;5056488;28;20057;-63
2022/07/17 07:58:01;;;;;;;3.33;1.10;;;;;;;17.23;69.72;98861.16;5056554;28;20045;-63
2022/07/17 08:00:30;;;;;;;2.95;1.35;;;;;;;17.35;72.01;98867.28;5056462;28;20065;-63
2022/07/17 08:02:58;;;;;;;3.30;1.00;;;;;;;17.38;69.14;98862.59;5056603;28;20041;-63
2022/07/17 08:05:25;;;;;;;1.58;0.70;;;;;;;17.47;68.31;98871.66;5054805;28;20444;-62
2022/07/17 08:07:53;;;;;;;1.42;1.00;;;;;;;17.52;65.06;98866.84;5056181;28;20045;-63
2022/07/17 08:10:20;;;;;;;3.25;1.08;;;;;;;17.37;65.23;98868.88;5056795;28;20128;-62
2022/07/17 08:12:48;;;;;;;4.45;1.17;;;;;;;17.38;67.20;98873.25;5056920;28;20076;-62
2022/07/17 08:15:16;;;;;;;3.10;1.05;;;;;;;17.48;65.65;98873.38;5051772;28;20078;-63
2022/07/17 08:17:47;;;;;;;2.47;1.55;;;;;;;17.62;65.95;98873.09;5050247;28;20051;-63
2022/07/17 08:20:15;;;;;;;2.92;0.90;;;;;;;17.58;66.03;98880.50;5056623;28;20065;-62
2022/07/17 08:22:43;;;;;;;6.80;2.35;;;;;;;17.63;63.99;98877.47;5056747;28;20437;-62
2022/07/17 08:25:11;;;;;;;1.70;1.08;;;;;;;17.64;63.17;98874.69;5055595;28;20329;-63
2022/07/17 08:27:40;;;;;;;3.15;0.90;;;;;;;17.78;65.42;98886.91;5056718;28;20045;-62
2022/07/17 08:30:12;;;;;;;2.72;0.85;;;;;;;17.95;64.10;98878.41;5056986;28;20076;-63
2022/07/17 08:32:40;;;;;;;1.17;0.65;;;;;;;18.03;61.59;98873.34;5056972;28;20076;-63
2022/07/17 08:35:10;;;;;;;3.17;1.75;;;;;;;18.26;64.91;98874.09;5056738;28;20459;-64
2022/07/17 08:37:45;;;;;;;2.28;0.70;;;;;;;18.67;61.87;98875.06;5056474;28;20041;-64
2022/07/17 08:40:21;;;;;;;2.35;1.27;;;;;;;18.84;61.48;98874.53;5053147;28;20508;-64
2022/07/17 08:42:49;;;;;;;2.78;0.95;;;;;;;19.21;60.51;98872.22;5056516;28;20126;-64
2022/07/17 08:45:16;;;;;;;5.15;1.13;;;;;;;19.10;61.93;98872.28;5056575;28;20433;-65
2022/07/17 08:47:44;;;;;;;4.82;0.93;;;;;;;18.70;62.97;98879.31;5056523;28;20444;-65
2022/07/17 08:50:14;;;;;;;3.50;1.13;;;;;;;18.36;63.12;98883.06;5056741;28;20045;-64
2022/07/17 08:52:44;;;;;;;4.57;1.30;;;;;;;18.43;64.35;98876.25;5056658;28;20462;-64
2022/07/17 08:55:13;;;;;;;2.55;0.75;;;;;;;18.84;63.51;98879.00;5057125;28;20045;-65
2022/07/17 08:57:43;;;;;;;4.38;1.30;;;;;;;19.14;59.91;98881.72;5056445;28;20382;-64
2022/07/17 09:00:12;;;;;;;0.73;0.70;;;;;;;19.32;59.88;98872.13;5056398;28;20047;-64
2022/07/17 09:02:41;;;;;;;3.08;1.00;;;;;;;19.49;59.39;98876.91;5049967;28;20095;-64
2022/07/17 09:05:09;;;;;;;2.15;0.88;;;;;;;19.68;61.59;98867.13;5056211;28;20127;-65
2022/07/17 09:07:47;;;;;;;5.25;0.90;;;;;;;19.73;62.50;98869.41;5056334;28;20045;-64
2022/07/17 09:10:15;;;;;;;4.00;0.90;;;;;;;19.52;62.12;98872.13;5056254;28;20116;-64
2022/07/17 09:12:43;;;;;;;3.70;0.65;;;;;;;18.76;60.03;98887.63;5036447;28;20068;-64
2022/07/17 09:15:19;;;;;;;2.92;1.55;;;;;;;18.47;62.46;98883.88;5035230;28;20076;-65
2022/07/17 09:17:51;;;;;;;3.70;0.98;;;;;;;18.58;64.02;98877.63;5038233;28;20118;-63
2022/07/17 09:20:19;;;;;;;5.97;1.08;;;;;;;18.78;60.74;98887.50;5045657;28;20037;-64
2022/07/17 09:22:58;;;;;;;5.70;1.23;;;;;;;18.98;60.93;98887.50;5046669;28;20042;-64
2022/07/17 09:25:37;;;;;;;3.63;1.17;;;;;;;19.25;61.58;98884.31;5051911;28;20140;-64
2022/07/17 09:28:06;;;;;;;1.15;0.55;;;;;;;19.48;58.80;98881.38;5058577;28;20079;-64
2022/07/17 09:30:36;;;;;;;4.20;0.80;;;;;;;18.97;60.25;98888.50;5050246;28;20395;-64
2022/07/17 09:33:08;;;;;;;5.43;1.60;;;;;;;18.62;60.61;98885.28;5055382;28;20056;-64
2022/07/17 09:35:45;;;;;;;1.80;0.60;;;;;;;18.69;60.09;98891.81;5046284;28;20059;-64
2022/07/17 09:38:26;;;;;;;1.52;0.98;;;;;;;19.26;59.75;98888.66;5052212;28;20065;-64
2022/07/17 09:41:11;;;;;;;1.63;0.70;;;;;;;19.39;57.44;98886.63;5058606;28;20041;-64
2022/07/17 09:43:42;;;;;;;4.95;0.90;;;;;;;19.12;58.84;98887.19;5058871;28;20132;-65
2022/07/17 09:46:10;;;;;;;4.55;0.98;;;;;;;19.15;60.18;98896.75;5059389;28;20041;-65
2022/07/17 09:48:47;;;;;;;1.65;0.50;;;;;;;18.97;59.60;98891.16;5059882;28;20041;-64
2022/07/17 09:51:17;;;;;;;4.25;1.63;;;;;;;19.26;61.50;98894.00;5058181;28;20045;-63
2022/07/17 09:53:49;;;;;;;2.63;0.43;;;;;;;19.58;59.68;98881.44;5057016;28;20044;-64
2022/07/17 09:56:20;;;;;;;1.48;0.95;;;;;;;19.65;58.63;98880.78;5057523;28;20076;-64
2022/07/17 09:58:51;;;;;;;2.15;0.82;;;;;;;19.71;60.30;98890.88;5057626;28;20069;-64
2022/07/17 10:01:19;;;;;;;1.98;0.85;;;;;;;19.50;58.39;98890.13;5053297;28;20037;-65
2022/07/17 10:03:48;;;;;;;2.05;0.70;;;;;;;19.34;57.42;98887.03;5043891;28;20052;-64
2022/07/17 10:06:17;;;;;;;2.38;0.60;;;;;;;19.50;57.23;98874.09;5044793;28;20080;-63
2022/07/17 10:08:44;;;;;;;4.65;1.10;;;;;;;19.97;57.29;98875.25;5044246;28;20746;-63
2022/07/17 10:11:15;;;;;;;1.70;0.85;;;;;;;20.51;56.50;98863.13;5042318;28;20651;-65
2022/07/17 10:13:46;;;;;;;1.90;0.90;;;;;;;20.59;53.81;98873.94;5048821;28;20042;-64
2022/07/17 10:16:14;;;;;;;3.33;0.60;;;;;;;20.16;54.95;98872.63;5044290;28;20080;-63
2022/07/17 10:18:43;;;;;;;2.33;0.60;;;;;;;19.97;55.50;98878.75;5051830;28;20033;-64
2022/07/17 10:21:15;;;;;;;1.75;0.60;;;;;;;19.54;54.19;98888.88;5041651;28;20045;-64
2022/07/17 10:23:44;;;;;;;1.02;0.60;;;;;;;19.35;54.33;98886.03;5045111;28;20052;-64
2022/07/17 10:26:14;;;;;;;1.80;0.50;;;;;;;19.73;55.11;98891.63;5044130;28;20069;-64
2022/07/17 10:28:46;;;;;;;2.72;0.50;;;;;;;19.59;55.53;98877.78;5045397;28;20050;-64
2022/07/17 10:31:24;;;;;;;3.92;0.80;;;;;;;19.47;55.74;98881.50;5045857;28;20047;-64
2022/07/17 10:33:59;;;;;;;2.85;0.70;;;;;;;19.31;57.23;98889.97;5051814;28;20044;-63
2022/07/17 10:36:34;;;;;;;5.00;0.70;;;;;;;19.18;55.83;98885.81;5055714;28;20041;-64
2022/07/17 10:39:12;;;;;;;1.65;0.73;;;;;;;19.51;57.33;98893.63;5058643;28;20103;-64
2022/07/17 10:41:42;;;;;;;4.40;0.70;;;;;;;19.95;54.22;98882.53;5056157;28;20135;-64
2022/07/17 10:44:10;;;;;;;3.45;0.75;;;;;;;20.35;53.50;98872.69;5058402;28;20175;-65
2022/07/17 10:46:38;;;;;;;1.48;0.57;;;;;;;20.86;53.63;98873.25;5055949;28;20060;-65
2022/07/17 10:49:07;;;;;;;2.50;0.50;;;;;;;20.68;50.98;98878.47;5058502;28;20087;-64
2022/07/17 10:51:35;;;;;;;0.98;0.60;;;;;;;20.24;49.72;98881.69;5053521;28;20099;-65
2022/07/17 10:54:03;;;;;;;2.80;0.73;;;;;;;20.31;51.12;98882.81;5058028;28;20456;-64
2022/07/17 10:56:31;;;;;;;1.77;0.90;;;;;;;20.33;52.82;98870.13;5056756;28;20060;-65
2022/07/17 10:59:04;;;;;;;2.15;1.13;;;;;;;20.23;53.27;98884.47;5056599;28;20083;-65
2022/07/17 11:01:31;;;;;;;;;;;;;;;20.05;52.56;98883.41;5057778;28;20045;-65
2022/07/17 11:04:00;;;;;;;1.63;0.80;;;;;;;20.09;53.75;98887.50;5056784;28;19927;-64
2022/07/17 11:06:30;;;;;;;2.15;0.65;;;;;;;20.25;52.52;98887.84;5056776;28;20080;-65
2022/07/17 11:09:00;;;;;;;3.33;1.00;;;;;;;20.30;51.29;98875.75;5056693;28;20059;-65
2022/07/17 11:11:37;;;;;;;9.25;1.98;;;;;;;20.18;52.22;98876.88;5057267;28;20055;-63
2022/07/17 11:14:11;;;;;;;2.97;0.70;;;;;;;20.15;53.02;98881.63;5054715;28;20049;-63
2022/07/17 11:16:45;;;;;;;2.80;0.80;;;;;;;20.08;52.64;98886.66;5053958;28;20103;-63
2022/07/17 11:19:14;;;;;;;3.40;0.77;;;;;;;20.13;52.27;98881.75;5058072;28;20444;-64
2022/07/17 11:21:48;;;;;;;3.17;0.70;;;;;;;20.18;52.10;98882.22;5057630;28;20049;-64
2022/07/17 11:24:16;;;;;;;4.43;1.00;;;;;;;19.95;50.81;98887.88;5057763;28;20329;-64
2022/07/17 11:26:45;;;;;;;3.55;0.82;;;;;;;20.20;52.04;98884.75;5057692;28;20128;-63
2022/07/17 11:29:14;;;;;;;4.43;1.00;;;;;;;20.51;51.39;98876.50;5040761;28;20042;-64
2022/07/17 11:31:42;;;;;;;2.50;1.25;;;;;;;20.98;52.32;98866.78;5037550;28;20042;-64
2022/07/17 11:34:11;;;;;;;4.72;0.77;;;;;;;21.34;51.66;98876.72;5036816;28;20055;-64
2022/07/17 11:36:41;;;;;;;4.30;0.95;;;;;;;21.38;50.72;98861.19;5037112;28;20056;-64
2022/07/17 11:39:12;;;;;;;2.00;0.75;;;;;;;21.16;50.58;98861.53;5037002;28;20132;-64